createdAt,value
2016-11-02T12:02:36.059Z,8
2016-11-02T12:12:34.882Z,8.1
2016-11-02T12:22:34.863Z,8.3
2016-11-02T12:32:34.854Z,8.3
2016-11-02T12:42:34.871Z,8.4
2016-11-02T12:52:34.871Z,8.1
2016-11-02T13:02:34.861Z,7.6
2016-11-02T13:12:34.867Z,7.5
2016-11-02T13:22:34.869Z,7.6
2016-11-02T13:32:34.873Z,7.6
2016-11-02T13:42:34.873Z,7.8
2016-11-02T13:52:34.865Z,8
2016-11-02T14:02:34.879Z,8
2016-11-02T14:12:34.871Z,8
2016-11-02T14:22:34.875Z,8.1
2016-11-02T14:32:34.867Z,8.3
2016-11-02T14:42:34.871Z,8.2
2016-11-02T14:52:34.874Z,8
2016-11-02T15:02:34.877Z,8.1
2016-11-02T15:12:34.883Z,8
2016-11-02T15:22:34.876Z,7.8
2016-11-02T15:32:34.873Z,7.6
2016-11-02T15:42:34.883Z,7.4
2016-11-02T15:52:34.899Z,7.4
2016-11-02T16:02:34.881Z,7.4
2016-11-02T16:12:34.883Z,7.2
2016-11-02T16:22:34.876Z,7.1
2016-11-02T16:32:34.887Z,7
2016-11-02T16:42:34.985Z,6.6
2016-11-02T16:52:34.906Z,6.4
2016-11-02T17:02:34.884Z,6.4
2016-11-02T17:12:34.902Z,6.4
2016-11-02T17:22:34.895Z,6.3
2016-11-02T17:32:34.906Z,6.1
2016-11-02T17:42:34.901Z,6.1
2016-11-02T17:52:34.920Z,6
2016-11-02T18:02:34.903Z,5.9
2016-11-02T18:12:34.896Z,5.8
2016-11-02T18:22:34.905Z,5.7
2016-11-02T18:32:34.915Z,5.6
2016-11-02T18:42:34.903Z,5.5
2016-11-02T18:52:34.905Z,5.4
2016-11-02T19:02:34.905Z,5.3
2016-11-02T19:12:34.896Z,5.2
2016-11-02T19:22:34.911Z,5.1
2016-11-02T19:32:34.910Z,5
2016-11-02T19:42:34.920Z,4.9
2016-11-02T19:52:34.960Z,4.8
2016-11-02T20:02:34.952Z,4.7
2016-11-02T20:12:34.929Z,4.6
2016-11-02T20:22:34.914Z,4.5
2016-11-02T20:32:34.912Z,4.5
2016-11-02T20:42:34.938Z,4.4
2016-11-02T20:52:34.928Z,4.3
2016-11-02T21:02:35.188Z,4.2
2016-11-02T21:12:35.060Z,4.1
2016-11-02T21:22:34.920Z,4
2016-11-02T21:32:34.909Z,4
2016-11-02T21:52:34.920Z,3.9
2016-11-02T22:02:34.923Z,3.8
2016-11-02T22:12:34.918Z,3.8
2016-11-02T22:22:34.915Z,3.8
2016-11-02T22:32:34.922Z,3.8
2016-11-02T22:42:34.917Z,3.8
2016-11-02T22:52:34.917Z,3.7
2016-11-02T23:02:34.918Z,3.8
2016-11-02T23:12:34.932Z,3.8
2016-11-02T23:22:34.923Z,3.8
2016-11-02T23:32:34.929Z,3.8
2016-11-02T23:42:34.923Z,3.8
2016-11-02T23:52:34.932Z,3.7
